Time;durP1;ratioP1;P1;durP2;ratioP2;P2;SDS_P1;SDS_P2;PMS_P1;PMS_P2;Temp;Humidity;BMP_temperature;BMP_pressure;BME280_temperature;BME280_humidity;BME280_pressure;Samples;Min_cycle;Max_cycle;Signal;HPM_P1;HPM_P2
2023/09/15 00:00:20;;;;;;;1.30;1.00;;;26.50;49.10;;;;;;5017800;28;20056;-68
2023/09/15 00:02:47;;;;;;;2.08;1.10;;;26.50;49.10;;;;;;5018840;28;20589;-68
2023/09/15 00:05:13;;;;;;;1.73;1.00;;;26.50;49.70;;;;;;5019992;28;20507;-68
2023/09/15 00:07:38;;;;;;;1.52;1.00;;;26.50;49.20;;;;;;5022359;28;20049;-68
2023/09/15 00:10:06;;;;;;;1.27;0.90;;;26.50;49.20;;;;;;5022390;28;20029;-68
2023/09/15 00:12:32;;;;;;;1.23;0.93;;;26.50;49.30;;;;;;5022832;28;20030;-69
2023/09/15 00:14:58;;;;;;;1.52;1.10;;;26.50;49.30;;;;;;5023208;28;20091;-68
2023/09/15 00:17:25;;;;;;;1.20;1.00;;;26.40;49.30;;;;;;5021215;28;20509;-68
2023/09/15 00:19:51;;;;;;;1.27;0.90;;;26.40;49.30;;;;;;5023152;28;20123;-63
2023/09/15 00:22:16;;;;;;;1.45;1.00;;;26.40;49.30;;;;;;5023721;28;20782;-67
2023/09/15 00:24:42;;;;;;;1.52;1.10;;;26.40;49.40;;;;;;5022083;28;20091;-62
2023/09/15 00:27:09;;;;;;;1.25;1.08;;;26.40;49.40;;;;;;5021969;28;20087;-63
2023/09/15 00:29:40;;;;;;;1.23;0.90;;;26.40;49.50;;;;;;5021388;28;20563;-63
2023/09/15 00:32:07;;;;;;;1.00;0.80;;;26.40;49.50;;;;;;5021459;28;20044;-64
2023/09/15 00:34:32;;;;;;;1.50;1.05;;;26.40;49.50;;;;;;5021123;28;20080;-62
2023/09/15 00:36:58;;;;;;;1.30;1.08;;;26.40;49.50;;;;;;5021739;28;20428;-64
2023/09/15 00:39:24;;;;;;;1.40;1.13;;;26.40;49.60;;;;;;5021115;28;20124;-62
2023/09/15 00:41:50;;;;;;;1.15;0.95;;;26.40;49.60;;;;;;5019614;28;20084;-65
2023/09/15 00:44:15;;;;;;;1.40;1.00;;;26.30;49.60;;;;;;5018795;28;20390;-63
2023/09/15 00:46:42;;;;;;;1.20;1.00;;;26.40;49.70;;;;;;5021233;28;20164;-63
2023/09/15 00:49:07;;;;;;;1.75;1.00;;;26.30;49.60;;;;;;5020852;28;20488;-63
2023/09/15 00:51:33;;;;;;;1.02;0.90;;;26.30;49.70;;;;;;5022630;28;20080;-62
2023/09/15 00:54:00;;;;;;;1.25;1.00;;;26.30;49.70;;;;;;5020502;28;20025;-62
2023/09/15 00:56:26;;;;;;;1.70;1.00;;;26.30;49.70;;;;;;5020974;28;20537;-63
2023/09/15 00:58:53;;;;;;;1.20;1.00;;;26.30;49.70;;;;;;5024260;28;20049;-63
2023/09/15 01:01:18;;;;;;;1.10;0.95;;;26.30;49.80;;;;;;5029277;28;20034;-62
2023/09/15 01:03:45;;;;;;;1.20;1.00;;;26.30;49.80;;;;;;5020731;28;20040;-64
2023/09/15 01:06:13;;;;;;;1.45;1.10;;;26.20;49.70;;;;;;5020732;28;20490;-64
2023/09/15 01:08:38;;;;;;;1.48;1.17;;;26.30;49.90;;;;;;5020589;28;20029;-64
2023/09/15 01:11:05;;;;;;;1.17;0.90;;;26.30;49.90;;;;;;5019270;28;20025;-63
2023/09/15 01:13:35;;;;;;;1.10;1.00;;;26.20;49.80;;;;;;5020214;28;20041;-64
2023/09/15 01:16:16;;;;;;;1.65;1.00;;;26.20;50.40;;;;;;5018519;28;20485;-63
2023/09/15 01:18:55;;;;;;;1.48;1.10;;;26.20;49.90;;;;;;5020662;28;20053;-68
2023/09/15 01:21:35;;;;;;;;;;;26.20;49.90;;;;;;5020376;28;20030;-67
2023/09/15 01:24:38;;;;;;;1.27;1.00;;;26.20;49.90;;;;;;5018183;28;19999;-69
2023/09/15 01:28:04;;;;;;;1.35;1.10;;;26.20;49.90;;;;;;5019626;28;20628;-69
2023/09/15 01:30:31;;;;;;;1.75;1.08;;;26.20;50.00;;;;;;4957694;28;20027;-64
2023/09/15 01:32:59;;;;;;;1.30;1.00;;;26.20;50.00;;;;;;4959801;28;20027;-64
2023/09/15 01:35:25;;;;;;;1.40;1.00;;;26.20;50.50;;;;;;4991081;28;20111;-63
2023/09/15 01:37:51;;;;;;;1.50;1.10;;;26.20;50.00;;;;;;5018527;28;20121;-64
2023/09/15 01:40:17;;;;;;;1.05;0.90;;;26.20;50.10;;;;;;5020179;28;20037;-63
2023/09/15 01:42:44;;;;;;;1.40;1.10;;;26.20;50.10;;;;;;5021073;28;20050;-65
2023/09/15 01:45:10;;;;;;;1.50;1.00;;;26.10;50.50;;;;;;5021704;28;20082;-65
2023/09/15 01:47:37;;;;;;;0.98;0.90;;;26.10;50.10;;;;;;5019749;28;20026;-65
2023/09/15 01:50:05;;;;;;;1.42;1.08;;;26.10;50.10;;;;;;5021035;28;20388;-64
2023/09/15 01:52:31;;;;;;;1.10;0.90;;;26.10;50.10;;;;;;5018739;28;20025;-64
2023/09/15 01:54:57;;;;;;;1.20;0.98;;;26.10;50.10;;;;;;5011207;28;20030;-64
2023/09/15 01:57:23;;;;;;;1.08;0.95;;;26.10;50.10;;;;;;5019942;28;20028;-65
2023/09/15 01:59:49;;;;;;;1.60;1.02;;;26.10;50.10;;;;;;5020824;28;20021;-65
2023/09/15 02:02:15;;;;;;;1.40;1.00;;;26.10;50.20;;;;;;5018446;28;20026;-63
2023/09/15 02:04:40;;;;;;;1.88;1.20;;;26.10;50.20;;;;;;5022020;28;20038;-63
2023/09/15 02:07:07;;;;;;;1.50;1.10;;;26.10;50.20;;;;;;5020032;28;20030;-65
2023/09/15 02:09:33;;;;;;;1.20;1.00;;;26.10;50.20;;;;;;5018839;28;20112;-69
2023/09/15 02:11:59;;;;;;;1.23;1.13;;;26.10;50.20;;;;;;5019305;28;20116;-68
2023/09/15 02:14:25;;;;;;;1.20;1.00;;;26.10;50.20;;;;;;5020003;28;20064;-69
2023/09/15 02:16:51;;;;;;;1.60;1.00;;;26.10;50.30;;;;;;5020005;28;20397;-69
2023/09/15 02:19:18;;;;;;;1.13;0.90;;;26.00;50.20;;;;;;5018242;28;20080;-67
2023/09/15 02:21:44;;;;;;;1.25;0.90;;;26.00;50.20;;;;;;5020505;28;20410;-68
2023/09/15 02:24:10;;;;;;;1.23;0.90;;;26.10;50.30;;;;;;5020188;28;20026;-67
2023/09/15 02:26:35;;;;;;;1.30;1.00;;;26.00;50.20;;;;;;5019821;28;20045;-69
2023/09/15 02:29:01;;;;;;;1.08;0.90;;;26.00;50.30;;;;;;5021130;28;20438;-65
2023/09/15 02:31:27;;;;;;;1.55;0.95;;;26.00;50.30;;;;;;5019475;28;20108;-65
2023/09/15 02:33:52;;;;;;;1.33;1.00;;;26.00;50.30;;;;;;5009911;28;20050;-64
2023/09/15 02:36:18;;;;;;;1.50;1.00;;;26.00;50.30;;;;;;5020513;28;20026;-64
2023/09/15 02:38:43;;;;;;;1.55;1.10;;;26.00;50.30;;;;;;5017318;28;20389;-62
2023/09/15 02:41:09;;;;;;;1.42;1.00;;;26.00;50.30;;;;;;5029392;28;20049;-64
2023/09/15 02:43:35;;;;;;;1.10;1.00;;;26.00;50.40;;;;;;5020230;28;20489;-62
2023/09/15 02:46:04;;;;;;;1.27;1.05;;;26.00;50.40;;;;;;5019478;28;20053;-63
2023/09/15 02:48:30;;;;;;;;;;;26.00;50.40;;;;;;5020497;28;20050;-64
2023/09/15 02:50:58;;;;;;;1.48;1.10;;;26.00;50.40;;;;;;5017443;28;20010;-63
2023/09/15 02:53:23;;;;;;;1.00;0.90;;;26.00;50.40;;;;;;5019764;28;20100;-62
2023/09/15 02:55:57;;;;;;;1.45;1.00;;;26.00;50.40;;;;;;5017569;28;20817;-62
2023/09/15 02:58:23;;;;;;;1.17;0.90;;;26.00;50.40;;;;;;5018287;28;20096;-63
2023/09/15 03:00:48;;;;;;;1.27;1.00;;;26.00;50.50;;;;;;5018179;28;20120;-62
2023/09/15 03:03:14;;;;;;;1.13;1.00;;;25.90;50.40;;;;;;5017686;28;20025;-63
2023/09/15 03:05:40;;;;;;;1.10;1.00;;;25.90;50.40;;;;;;5019097;28;20075;-63
2023/09/15 03:08:05;;;;;;;1.40;0.98;;;25.90;50.40;;;;;;5017451;28;20037;-63
2023/09/15 03:10:34;;;;;;;1.52;1.13;;;25.90;50.40;;;;;;5019134;28;20029;-64
2023/09/15 03:13:02;;;;;;;1.00;0.90;;;25.90;50.50;;;;;;5018596;28;20108;-63
2023/09/15 03:15:28;;;;;;;1.15;1.00;;;25.90;50.50;;;;;;5019155;28;20362;-62
2023/09/15 03:17:53;;;;;;;1.20;1.00;;;25.90;50.50;;;;;;5018532;28;20060;-63
2023/09/15 03:20:20;;;;;;;1.35;1.00;;;25.90;50.50;;;;;;5018368;28;20121;-64
2023/09/15 03:22:47;;;;;;;1.40;1.00;;;25.90;50.50;;;;;;5017797;28;20054;-64
2023/09/15 03:25:16;;;;;;;1.35;1.08;;;25.90;50.50;;;;;;5019199;28;20076;-64
2023/09/15 03:27:42;;;;;;;1.58;1.10;;;25.90;50.50;;;;;;5016491;28;20037;-65
2023/09/15 03:30:08;;;;;;;1.48;1.02;;;25.90;50.60;;;;;;5017200;28;20381;-65
2023/09/15 03:32:34;;;;;;;1.27;1.00;;;25.90;50.60;;;;;;5019298;28;20060;-65
2023/09/15 03:35:00;;;;;;;1.70;1.17;;;25.80;50.50;;;;;;5015983;28;20073;-65
2023/09/15 03:37:26;;;;;;;1.13;1.02;;;25.80;50.50;;;;;;5018631;28;20022;-65
2023/09/15 03:39:52;;;;;;;0.93;0.82;;;25.80;50.50;;;;;;5020347;28;20383;-68
2023/09/15 03:42:17;;;;;;;1.15;1.00;;;25.80;50.60;;;;;;5023074;28;20029;-68
2023/09/15 03:44:43;;;;;;;1.55;1.08;;;25.80;50.60;;;;;;5023429;28;20037;-68
2023/09/15 03:47:09;;;;;;;1.60;1.10;;;25.80;50.60;;;;;;5024712;28;20025;-68
2023/09/15 03:49:35;;;;;;;1.35;1.05;;;25.80;50.60;;;;;;5022772;28;20493;-68
2023/09/15 03:52:00;;;;;;;1.02;0.93;;;25.80;50.60;;;;;;5021897;28;20072;-68
2023/09/15 03:54:27;;;;;;;1.35;1.10;;;25.80;50.60;;;;;;5023277;28;20025;-68
2023/09/15 03:56:54;;;;;;;1.50;1.10;;;25.80;50.60;;;;;;5024429;28;20485;-67
2023/09/15 03:59:20;;;;;;;1.95;0.90;;;25.80;50.60;;;;;;5022823;28;20022;-68
2023/09/15 04:01:47;;;;;;;1.42;1.10;;;25.80;50.60;;;;;;5022842;28;20473;-68
2023/09/15 04:04:13;;;;;;;1.23;1.08;;;25.80;50.60;;;;;;5022439;28;20022;-67
2023/09/15 04:06:39;;;;;;;1.10;1.00;;;25.80;50.60;;;;;;5022913;28;20044;-68
2023/09/15 04:09:09;;;;;;;1.73;1.10;;;25.80;50.60;;;;;;5022470;28;20086;-68
2023/09/15 04:11:35;;;;;;;1.15;0.93;;;25.80;50.70;;;;;;5023351;28;20409;-68
2023/09/15 04:14:01;;;;;;;1.50;1.10;;;25.70;50.60;;;;;;5029977;28;20029;-67
2023/09/15 04:16:27;;;;;;;1.63;1.10;;;25.70;50.60;;;;;;5022361;28;20680;-68
2023/09/15 04:18:52;;;;;;;1.50;1.02;;;25.80;50.60;;;;;;5023028;28;20021;-68
2023/09/15 04:21:18;;;;;;;1.45;1.10;;;25.70;50.60;;;;;;5022792;28;20465;-68
2023/09/15 04:23:43;;;;;;;1.27;1.00;;;25.70;50.60;;;;;;5021107;28;20025;-68
2023/09/15 04:26:09;;;;;;;1.60;1.13;;;25.70;50.70;;;;;;5020886;28;20175;-68
2023/09/15 04:28:35;;;;;;;1.63;1.20;;;25.70;50.70;;;;;;5022671;28;20026;-69
2023/09/15 04:31:00;;;;;;;1.70;1.30;;;25.70;50.70;;;;;;5020376;28;20046;-69
2023/09/15 04:33:26;;;;;;;1.60;1.23;;;25.70;50.70;;;;;;5021238;28;20029;-69
2023/09/15 04:35:51;;;;;;;1.63;1.10;;;25.70;50.70;;;;;;5021297;28;20048;-70
2023/09/15 04:38:17;;;;;;;1.70;1.20;;;25.70;50.80;;;;;;5017208;28;20026;-68
2023/09/15 04:40:43;;;;;;;1.58;1.10;;;25.70;50.80;;;;;;5018850;28;20161;-67
2023/09/15 04:43:08;;;;;;;1.60;1.25;;;25.70;50.80;;;;;;5023897;28;20028;-68
2023/09/15 04:45:34;;;;;;;1.70;1.27;;;25.70;50.80;;;;;;5021304;28;20029;-68
2023/09/15 04:48:00;;;;;;;1.33;1.00;;;25.70;50.80;;;;;;5021205;28;20497;-67
2023/09/15 04:50:26;;;;;;;2.83;1.27;;;25.70;50.80;;;;;;5021966;28;20407;-67
2023/09/15 04:52:52;;;;;;;1.50;1.15;;;25.70;50.80;;;;;;5020077;28;20025;-67
2023/09/15 04:55:19;;;;;;;1.70;1.25;;;25.70;50.80;;;;;;5022285;28;20045;-66
2023/09/15 04:57:46;;;;;;;1.23;1.00;;;25.70;50.80;;;;;;5019868;28;20034;-67
2023/09/15 05:00:23;;;;;;;1.33;1.20;;;25.70;50.80;;;;;;5021900;28;20462;-62
2023/09/15 05:02:49;;;;;;;1.60;1.20;;;25.70;50.80;;;;;;5021156;28;20017;-61
2023/09/15 05:05:14;;;;;;;1.73;1.30;;;25.70;50.80;;;;;;5022820;28;20032;-61
2023/09/15 05:07:40;;;;;;;1.75;1.17;;;25.70;50.80;;;;;;5021911;28;20030;-61
2023/09/15 05:10:08;;;;;;;1.50;1.30;;;25.60;50.70;;;;;;5012436;28;20087;-61
2023/09/15 05:12:33;;;;;;;1.67;1.20;;;25.60;50.70;;;;;;5020953;28;20018;-61
2023/09/15 05:14:59;;;;;;;1.58;1.10;;;25.70;50.80;;;;;;5019956;28;20026;-61
2023/09/15 05:17:25;;;;;;;1.67;1.20;;;25.60;50.70;;;;;;5021137;28;20113;-63
2023/09/15 05:19:51;;;;;;;1.75;1.30;;;25.60;50.70;;;;;;5020659;28;20034;-61
2023/09/15 05:22:17;;;;;;;1.63;1.20;;;25.60;50.70;;;;;;5022539;28;20041;-63
2023/09/15 05:24:42;;;;;;;1.58;1.20;;;25.60;50.70;;;;;;5021061;28;20933;-62
2023/09/15 05:27:08;;;;;;;1.20;1.00;;;25.60;50.70;;;;;;5020514;28;20026;-62
2023/09/15 05:29:34;;;;;;;1.25;1.10;;;25.60;50.70;;;;;;5021664;28;20385;-61
2023/09/15 05:31:59;;;;;;;1.35;1.15;;;25.60;50.70;;;;;;5021945;28;20129;-62
2023/09/15 05:34:25;;;;;;;1.50;1.17;;;25.60;50.70;;;;;;5020180;28;20040;-61
2023/09/15 05:36:51;;;;;;;1.50;1.10;;;25.60;50.70;;;;;;5017816;28;20928;-62
2023/09/15 05:39:16;;;;;;;1.58;1.23;;;25.60;50.70;;;;;;5018884;28;20493;-62
2023/09/15 05:41:42;;;;;;;2.03;1.30;;;25.60;50.70;;;;;;5020047;28;20026;-62
2023/09/15 05:44:08;;;;;;;1.60;1.20;;;25.60;50.70;;;;;;5019030;28;20490;-62
2023/09/15 05:46:33;;;;;;;1.77;1.35;;;25.60;50.80;;;;;;5020214;28;20041;-62
2023/09/15 05:48:59;;;;;;;1.30;1.10;;;25.60;50.80;;;;;;5019678;28;20026;-62
2023/09/15 05:51:24;;;;;;;1.60;1.30;;;25.60;50.80;;;;;;5020755;28;20029;-61
2023/09/15 05:53:50;;;;;;;1.25;1.15;;;25.50;50.70;;;;;;5018016;28;20048;-63
2023/09/15 05:56:17;;;;;;;1.60;1.17;;;25.60;50.80;;;;;;5019444;28;20040;-62
2023/09/15 05:58:43;;;;;;;1.33;1.10;;;25.50;50.70;;;;;;5020583;28;20022;-67
2023/09/15 06:01:08;;;;;;;2.00;1.42;;;25.50;50.80;;;;;;5016866;28;20434;-67
2023/09/15 06:03:34;;;;;;;2.67;1.60;;;25.50;50.60;;;;;;5019568;28;20022;-67
2023/09/15 06:05:59;;;;;;;2.28;1.80;;;25.50;49.50;;;;;;5018779;28;20551;-67
2023/09/15 06:08:25;;;;;;;2.80;2.13;;;25.50;48.30;;;;;;5020503;28;20068;-63
2023/09/15 06:10:50;;;;;;;2.83;2.25;;;25.50;48.10;;;;;;5020229;28;20038;-66
2023/09/15 06:13:18;;;;;;;3.10;2.20;;;25.50;48.00;;;;;;5020721;28;20025;-65
2023/09/15 06:15:44;;;;;;;3.15;2.35;;;25.50;47.90;;;;;;5017899;28;20047;-66
2023/09/15 06:18:10;;;;;;;3.47;2.78;;;25.50;47.80;;;;;;5021320;28;20025;-66
2023/09/15 06:20:36;;;;;;;3.28;2.42;;;25.50;47.70;;;;;;5018825;28;20053;-66
2023/09/15 06:23:01;;;;;;;2.97;2.30;;;25.60;47.80;;;;;;5018321;28;20166;-66
2023/09/15 06:25:27;;;;;;;3.03;2.40;;;25.50;47.70;;;;;;5018628;28;20087;-66
2023/09/15 06:27:53;;;;;;;3.30;2.55;;;25.50;48.20;;;;;;5019071;28;20033;-66
2023/09/15 06:30:18;;;;;;;4.57;2.50;;;25.50;47.70;;;;;;5020761;28;20396;-66
2023/09/15 06:32:44;;;;;;;2.75;2.33;;;25.50;47.80;;;;;;5019550;28;20025;-66
2023/09/15 06:35:13;;;;;;;4.28;2.78;;;25.50;47.80;;;;;;5018767;28;20030;-66
2023/09/15 06:37:41;;;;;;;6.13;3.30;;;25.50;47.90;;;;;;5021337;28;20053;-66
2023/09/15 06:40:08;;;;;;;4.00;3.05;;;25.50;47.80;;;;;;5018129;28;20473;-66
2023/09/15 06:42:34;;;;;;;3.33;2.90;;;25.50;48.00;;;;;;5018953;28;20029;-66
2023/09/15 06:45:00;;;;;;;4.47;2.97;;;25.50;48.10;;;;;;5019607;28;20030;-66
2023/09/15 06:47:25;;;;;;;4.03;3.15;;;25.50;48.20;;;;;;5019669;28;20374;-66
2023/09/15 06:49:51;;;;;;;4.43;3.30;;;25.50;48.20;;;;;;5018538;28;20025;-66
2023/09/15 06:52:17;;;;;;;4.68;3.75;;;25.50;48.20;;;;;;5019829;28;20033;-67
2023/09/15 06:54:42;;;;;;;5.05;4.35;;;25.40;48.30;;;;;;5017483;28;20501;-66
2023/09/15 06:57:08;;;;;;;5.18;4.38;;;25.40;48.30;;;;;;5019758;28;20164;-66
2023/09/15 06:59:36;;;;;;;5.28;4.65;;;25.40;48.30;;;;;;5018207;28;20111;-66
2023/09/15 07:02:02;;;;;;;5.47;4.50;;;25.40;48.30;;;;;;5018707;28;20026;-66
2023/09/15 07:04:29;;;;;;;6.80;4.20;;;25.40;48.30;;;;;;5018074;28;20370;-67
2023/09/15 07:06:54;;;;;;;5.40;4.57;;;25.40;48.40;;;;;;5017892;28;20041;-65
2023/09/15 07:09:22;;;;;;;6.13;5.50;;;25.40;48.50;;;;;;5019021;28;20473;-61
2023/09/15 07:11:47;;;;;;;5.68;5.07;;;25.40;48.50;;;;;;5018298;28;20038;-62
2023/09/15 07:14:13;;;;;;;5.90;5.20;;;25.40;48.60;;;;;;5016485;28;20543;-63
2023/09/15 07:16:39;;;;;;;6.22;5.07;;;25.40;48.60;;;;;;5020144;28;20041;-63
2023/09/15 07:19:04;;;;;;;5.70;5.10;;;25.40;48.70;;;;;;5018617;28;20500;-67
2023/09/15 07:21:30;;;;;;;6.13;5.05;;;25.30;48.60;;;;;;5017883;28;20033;-66
2023/09/15 07:23:55;;;;;;;6.28;5.00;;;25.30;48.70;;;;;;5018725;28;20152;-67
2023/09/15 07:26:24;;;;;;;5.38;4.63;;;25.30;48.70;;;;;;5018112;28;20350;-67
2023/09/15 07:28:49;;;;;;;5.37;4.87;;;25.30;48.80;;;;;;5019053;28;20116;-67
2023/09/15 07:31:15;;;;;;;5.78;5.03;;;25.30;48.80;;;;;;5018507;28;20295;-67
2023/09/15 07:33:43;;;;;;;6.07;5.15;;;25.20;48.70;;;;;;5019260;28;20096;-68
2023/09/15 07:36:09;;;;;;;5.18;4.30;;;25.30;48.90;;;;;;5019176;28;20026;-67
2023/09/15 07:38:34;;;;;;;5.57;4.50;;;25.20;48.80;;;;;;5019957;28;20125;-67
2023/09/15 07:41:00;;;;;;;4.85;4.35;;;25.20;48.90;;;;;;5019407;28;20107;-67
2023/09/15 07:43:26;;;;;;;5.50;4.80;;;25.20;49.00;;;;;;5017875;28;20033;-67
2023/09/15 07:45:51;;;;;;;6.82;5.55;;;25.20;49.10;;;;;;5020093;28;20563;-67
2023/09/15 07:48:17;;;;;;;6.22;5.63;;;25.20;49.10;;;;;;5017215;28;20045;-66
2023/09/15 07:50:43;;;;;;;5.85;5.20;;;25.10;49.20;;;;;;5018076;28;20076;-67
2023/09/15 07:53:09;;;;;;;5.78;5.18;;;25.20;49.40;;;;;;5019392;28;20500;-67
2023/09/15 07:55:35;;;;;;;5.60;5.03;;;25.10;49.50;;;;;;5016877;28;20926;-67
2023/09/15 07:58:01;;;;;;;6.65;5.10;;;25.10;49.70;;;;;;5018572;28;20030;-67
2023/09/15 08:00:27;;;;;;;6.78;5.20;;;25.10;49.80;;;;;;5019039;28;20026;-66
2023/09/15 08:02:53;;;;;;;5.32;4.82;;;25.10;50.00;;;;;;5019926;28;20367;-66
2023/09/15 08:05:19;;;;;;;5.80;4.70;;;25.10;50.10;;;;;;5017368;28;20036;-66
2023/09/15 08:07:46;;;;;;;5.60;4.90;;;25.10;50.00;;;;;;5017199;28;20034;-66
2023/09/15 08:10:13;;;;;;;5.63;5.03;;;25.10;50.10;;;;;;5018452;28;20109;-66
2023/09/15 08:12:39;;;;;;;5.38;4.65;;;25.10;50.10;;;;;;5019346;28;20026;-67
2023/09/15 08:15:05;;;;;;;5.63;4.93;;;25.10;50.00;;;;;;5018965;28;20087;-66
2023/09/15 08:17:31;;;;;;;6.63;5.10;;;25.10;50.00;;;;;;5018370;28;20049;-66
2023/09/15 08:19:58;;;;;;;5.60;5.00;;;25.10;49.80;;;;;;5019076;28;20073;-67
2023/09/15 08:22:25;;;;;;;5.72;4.60;;;25.10;49.80;;;;;;5017901;28;20472;-67
2023/09/15 08:24:51;;;;;;;6.10;5.05;;;25.10;50.00;;;;;;5019442;28;20517;-67
2023/09/15 08:27:17;;;;;;;5.28;4.78;;;25.10;49.80;;;;;;5020327;28;20117;-67
2023/09/15 08:29:43;;;;;;;5.35;4.82;;;25.10;49.80;;;;;;5021821;28;20945;-67
2023/09/15 08:32:11;;;;;;;5.22;4.65;;;25.10;49.90;;;;;;5021766;28;20034;-67
2023/09/15 08:34:37;;;;;;;5.43;4.90;;;25.10;49.90;;;;;;5021792;28;20036;-67
2023/09/15 08:37:03;;;;;;;5.95;4.80;;;25.10;50.00;;;;;;5013913;28;20404;-67
2023/09/15 08:39:29;;;;;;;5.32;4.63;;;25.10;50.00;;;;;;5023568;28;20116;-67
2023/09/15 08:42:04;;;;;;;5.13;4.63;;;25.10;50.10;;;;;;5020065;28;20118;-67
2023/09/15 08:44:32;;;;;;;5.90;5.18;;;25.10;50.10;;;;;;5021579;28;20059;-67
2023/09/15 08:47:00;;;;;;;5.20;4.70;;;25.10;50.20;;;;;;5021385;28;20476;-67
2023/09/15 08:49:27;;;;;;;6.15;5.30;;;25.10;50.40;;;;;;5019461;28;20060;-67
2023/09/15 08:51:55;;;;;;;6.28;5.68;;;25.10;50.40;;;;;;5020270;28;20037;-67
2023/09/15 08:54:21;;;;;;;6.10;5.40;;;25.10;50.40;;;;;;5021820;28;20258;-67
2023/09/15 08:56:47;;;;;;;6.18;5.22;;;25.10;50.50;;;;;;5020191;28;20028;-66
2023/09/15 08:59:14;;;;;;;6.22;5.15;;;25.10;50.60;;;;;;5021097;28;20536;-67
2023/09/15 09:01:40;;;;;;;6.28;5.60;;;25.10;50.80;;;;;;5020943;28;20030;-67
2023/09/15 09:04:06;;;;;;;6.70;5.68;;;25.10;50.80;;;;;;5018033;28;20026;-67
2023/09/15 09:06:34;;;;;;;6.45;5.32;;;25.10;50.80;;;;;;5020454;28;20034;-67
2023/09/15 09:09:01;;;;;;;6.60;5.50;;;25.10;50.90;;;;;;5020357;28;20029;-64
2023/09/15 09:11:27;;;;;;;6.18;5.30;;;25.00;51.00;;;;;;5023453;28;20355;-63
2023/09/15 09:13:53;;;;;;;6.85;5.63;;;25.00;51.10;;;;;;5019928;28;20029;-63
2023/09/15 09:16:20;;;;;;;5.93;5.32;;;25.00;51.00;;;;;;5017800;28;20037;-64
2023/09/15 09:19:00;;;;;;;6.55;5.88;;;25.00;51.00;;;;;;5021181;28;20030;-63
2023/09/15 09:21:27;;;;;;;7.13;5.57;;;25.00;51.00;;;;;;5019470;28;20030;-63
2023/09/15 09:23:55;;;;;;;5.80;5.03;;;25.00;51.10;;;;;;5019084;28;20505;-63
2023/09/15 09:26:21;;;;;;;6.68;5.97;;;25.00;51.20;;;;;;5020550;28;20049;-63
2023/09/15 09:28:47;;;;;;;5.85;5.25;;;25.00;51.20;;;;;;5020197;28;20033;-67
2023/09/15 09:31:14;;;;;;;5.82;5.22;;;25.00;51.50;;;;;;5021354;28;20024;-64
2023/09/15 09:33:39;;;;;;;6.38;5.38;;;25.00;51.40;;;;;;5020683;28;20030;-64
2023/09/15 09:36:10;;;;;;;5.75;5.15;;;25.00;51.30;;;;;;5020538;28;20168;-64
2023/09/15 09:38:36;;;;;;;5.28;4.70;;;25.00;51.30;;;;;;5021158;28;20022;-63
2023/09/15 09:41:03;;;;;;;5.82;4.75;;;25.00;51.20;;;;;;5021406;28;20083;-67
2023/09/15 09:43:29;;;;;;;5.28;4.38;;;25.10;51.30;;;;;;5021298;28;20746;-67
2023/09/15 09:45:55;;;;;;;5.95;4.40;;;25.10;51.20;;;;;;5019803;28;20128;-66
2023/09/15 09:48:23;;;;;;;5.00;4.38;;;25.10;51.10;;;;;;5019420;28;20394;-66
2023/09/15 09:50:49;;;;;;;4.60;4.10;;;25.10;51.10;;;;;;5021514;28;20029;-67
2023/09/15 09:53:15;;;;;;;4.60;4.10;;;25.10;51.10;;;;;;5020286;28;20180;-66
2023/09/15 09:55:45;;;;;;;5.03;3.95;;;25.10;51.10;;;;;;5017237;28;20038;-67
2023/09/15 09:58:14;;;;;;;4.43;4.03;;;25.10;51.10;;;;;;5021933;28;20021;-66
2023/09/15 10:00:40;;;;;;;;;;;25.10;51.10;;;;;;5020031;28;20025;-66
2023/09/15 10:03:05;;;;;;;4.70;4.20;;;25.10;51.00;;;;;;5019258;28;19909;-65
2023/09/15 10:05:33;;;;;;;4.53;4.03;;;25.20;51.10;;;;;;5019273;28;20076;-67
2023/09/15 10:07:59;;;;;;;4.20;3.70;;;25.20;51.00;;;;;;5018797;28;20030;-67
2023/09/15 10:10:26;;;;;;;4.10;3.40;;;25.20;51.00;;;;;;5019295;28;20028;-67
2023/09/15 10:12:52;;;;;;;3.90;3.30;;;25.20;51.10;;;;;;5019695;28;20529;-67
2023/09/15 10:15:18;;;;;;;4.10;3.70;;;25.10;51.00;;;;;;5018238;28;20136;-66
2023/09/15 10:17:44;;;;;;;4.10;3.17;;;25.10;51.00;;;;;;5022628;28;20489;-66
2023/09/15 10:20:10;;;;;;;4.15;3.42;;;25.20;51.10;;;;;;5019512;28;20144;-61
2023/09/15 10:22:37;;;;;;;4.18;3.65;;;25.10;51.00;;;;;;5016960;28;20129;-62
2023/09/15 10:25:03;;;;;;;3.92;3.42;;;25.10;51.00;;;;;;5018598;28;20026;-63
2023/09/15 10:27:29;;;;;;;5.30;3.50;;;25.20;51.00;;;;;;5018288;28;20033;-61
2023/09/15 10:30:05;;;;;;;4.35;3.30;;;25.10;50.90;;;;;;5018207;28;20501;-61
2023/09/15 10:32:39;;;;;;;3.90;3.30;;;25.20;51.00;;;;;;5019826;28;20572;-61
2023/09/15 10:35:06;;;;;;;4.25;3.20;;;25.10;50.90;;;;;;5012134;28;20030;-63
2023/09/15 10:37:33;;;;;;;3.80;3.30;;;25.20;50.90;;;;;;5018643;28;20110;-61
2023/09/15 10:39:59;;;;;;;3.70;3.03;;;25.20;50.90;;;;;;5019698;28;20037;-64
2023/09/15 10:42:28;;;;;;;3.83;3.42;;;25.20;50.90;;;;;;5017683;28;20030;-64
2023/09/15 10:44:54;;;;;;;3.50;3.10;;;25.20;50.90;;;;;;5018653;28;20486;-64
2023/09/15 10:47:21;;;;;;;4.15;3.50;;;25.20;50.90;;;;;;5020157;28;20115;-64
2023/09/15 10:49:54;;;;;;;3.42;3.13;;;25.20;50.90;;;;;;5019538;28;20398;-62
2023/09/15 10:52:34;;;;;;;3.20;2.80;;;25.20;50.90;;;;;;5016541;28;20033;-62
2023/09/15 10:55:01;;;;;;;3.33;3.03;;;25.20;50.80;;;;;;5018581;28;20075;-62
2023/09/15 10:57:27;;;;;;;3.72;3.17;;;25.30;51.00;;;;;;5018004;28;20109;-61
2023/09/15 10:59:56;;;;;;;3.80;3.30;;;25.30;50.80;;;;;;5019150;28;20018;-60
2023/09/15 11:02:21;;;;;;;3.88;3.20;;;25.20;50.70;;;;;;5020845;28;20040;-61
2023/09/15 11:04:48;;;;;;;3.63;3.13;;;25.30;50.80;;;;;;5017070;28;20401;-62
2023/09/15 11:07:14;;;;;;;3.40;2.97;;;25.30;50.70;;;;;;5019945;28;20021;-61
2023/09/15 11:09:43;;;;;;;3.90;3.20;;;25.30;50.80;;;;;;5019386;28;20030;-61
2023/09/15 11:12:12;;;;;;;;;;;25.30;50.70;;;;;;5019181;28;20593;-61
2023/09/15 11:14:38;;;;;;;3.65;3.03;;;25.30;50.70;;;;;;5018245;28;20365;-62
2023/09/15 11:17:03;;;;;;;3.47;3.00;;;25.30;50.60;;;;;;5019519;28;20116;-62
2023/09/15 11:19:32;;;;;;;3.90;3.28;;;25.40;50.70;;;;;;5019169;28;20022;-63
2023/09/15 11:22:03;;;;;;;3.38;3.00;;;25.40;50.70;;;;;;5018439;28;20025;-61
2023/09/15 11:24:28;;;;;;;3.30;2.80;;;25.40;50.70;;;;;;5019828;28;20049;-62
2023/09/15 11:26:54;;;;;;;3.38;2.88;;;25.40;50.70;;;;;;5016402;28;20453;-64
2023/09/15 11:29:29;;;;;;;3.50;2.90;;;25.40;50.60;;;;;;5016420;28;20033;-62
2023/09/15 11:31:56;;;;;;;3.80;3.13;;;25.40;50.60;;;;;;5020469;28;20026;-61
2023/09/15 11:34:22;;;;;;;3.63;2.95;;;25.40;50.60;;;;;;5017808;28;20040;-62
2023/09/15 11:36:50;;;;;;;4.93;3.20;;;25.40;50.60;;;;;;5018281;28;20026;-61
2023/09/15 11:39:16;;;;;;;3.40;3.00;;;25.40;50.60;;;;;;5019216;28;20025;-63
2023/09/15 11:41:52;;;;;;;3.17;2.72;;;25.50;50.60;;;;;;5017197;28;20388;-61
2023/09/15 11:44:18;;;;;;;3.50;2.90;;;25.50;50.60;;;;;;5018011;28;20112;-61
2023/09/15 11:46:44;;;;;;;3.38;2.92;;;25.40;50.60;;;;;;5018194;28;20113;-64
2023/09/15 11:49:10;;;;;;;3.70;2.90;;;25.50;50.60;;;;;;5017983;28;20022;-67
2023/09/15 11:51:37;;;;;;;3.75;3.30;;;25.50;50.60;;;;;;5020764;28;20392;-68
2023/09/15 11:54:04;;;;;;;3.45;2.90;;;25.50;50.70;;;;;;5020120;28;20428;-68
2023/09/15 11:56:31;;;;;;;3.38;2.85;;;25.50;50.80;;;;;;5019168;28;20080;-69
2023/09/15 11:58:58;;;;;;;3.60;3.05;;;25.50;50.80;;;;;;5019575;28;20140;-64
2023/09/15 12:01:23;;;;;;;3.42;2.85;;;25.50;50.70;;;;;;5020105;28;20018;-61
2023/09/15 12:03:50;;;;;;;3.85;2.70;;;25.50;50.60;;;;;;5022433;28;20018;-61
2023/09/15 12:06:17;;;;;;;3.30;2.72;;;25.60;50.70;;;;;;5022967;28;20435;-62
2023/09/15 12:08:45;;;;;;;3.47;3.10;;;25.50;50.60;;;;;;5022376;28;20022;-63
2023/09/15 12:11:11;;;;;;;3.70;3.03;;;25.60;50.70;;;;;;5022387;28;20462;-62
2023/09/15 12:13:37;;;;;;;3.40;2.80;;;25.60;50.70;;;;;;5022140;28;20036;-63
2023/09/15 12:16:04;;;;;;;4.75;2.67;;;25.60;50.70;;;;;;5014457;28;20033;-64
2023/09/15 12:18:37;;;;;;;3.55;3.03;;;25.60;50.70;;;;;;5022402;28;20053;-61
2023/09/15 12:21:13;;;;;;;3.75;3.10;;;25.60;50.70;;;;;;5021571;28;20075;-63
2023/09/15 12:23:38;;;;;;;3.50;2.90;;;25.60;51.00;;;;;;5021477;28;20022;-62
2023/09/15 12:26:04;;;;;;;3.70;2.90;;;25.60;51.20;;;;;;5023573;28;20049;-63
2023/09/15 12:28:30;;;;;;;3.53;3.10;;;25.60;50.70;;;;;;5020696;28;20480;-63
2023/09/15 12:31:01;;;;;;;3.25;2.70;;;25.60;50.70;;;;;;5021198;28;20437;-62
2023/09/15 12:33:29;;;;;;;3.63;3.03;;;25.60;50.70;;;;;;5021128;28;20456;-63
2023/09/15 12:35:56;;;;;;;3.38;2.90;;;25.60;50.70;;;;;;5022751;28;20441;-63
2023/09/15 12:38:22;;;;;;;3.78;2.88;;;25.60;50.70;;;;;;5020727;28;20034;-63
2023/09/15 12:40:49;;;;;;;3.13;2.80;;;25.60;50.70;;;;;;5022754;28;20026;-64
2023/09/15 12:43:15;;;;;;;3.13;2.70;;;25.60;50.70;;;;;;5020926;28;20057;-62
2023/09/15 12:45:41;;;;;;;3.20;2.70;;;25.60;50.70;;;;;;5022347;28;20065;-62